首页
METAR-TAF:

METAR-TAF

机场 :

埃里克·尼尔森怀特霍斯国际机场

白馬, 育康省, 加拿大

纬度: 60-43N, 经度: 135-04W, 海拔: 703米

当前天气观测

该预报发布于29分钟前的16:00 UTC
风速3节,风向南转南东,在之间变化
温度 8°C
湿度 46%
气压 1012 hPa
能見度: 64.4公里
散云层高于24000英尺

METAR: CYXY 051600Z 16003KT 080V190 40SM SCT240 08/M03 A2987 RMK CI3 SLP137

时间: 09:29 (16:29 UTC)

预报

该预报发布于4小时和42分钟前的11:47 UTC
预报有效从05日的 12点(UTC)到 06日的 12点(UTC)
风速6节,风向西南
能見度: 10公里
散云层高于7000英尺
短暂存在
从 05日的 12点(UTC)到 05日的 22点(UTC)
多云层高于7000英尺
从 05日的 2200点(UTC)
风速8节,风向东南
能見度: 10公里
散云层高于8000英尺
短暂存在
从 05日的 22点(UTC)到 06日的 01点(UTC)
能見度: 10公里
多云层高于8000英尺
小阵雨
成为
从 05日的 22点(UTC)到 05日的 24点(UTC)
风速8节,风向
从 06日的 0100点(UTC)
风速10节,风向
能見度: 10公里
散云层高于7000英尺
短暂存在
从 06日的 01点(UTC)到 06日的 05点(UTC)
能見度: 10公里
多云层高于7000英尺
小阵雨
几率 30%
从 06日的 01点(UTC)到 06日的 05点(UTC)
风速15节,风向多变,有时为25节阵风
能見度: 4.8公里
多云层高于6000英尺, 积雨云.
雷暴, 雨, 轻雾
从 06日的 0500点(UTC)
风速3节,风向多变
能見度: 10公里
散云层高于7000英尺
散云层高于20000英尺
成为
从 06日的 10点(UTC)到 06日的 12点(UTC)
多云层高于15000英尺

TAF: CYXY 051147Z 0512/0612 22006KT P6SM SCT070 TEMPO 0512/0522 BKN070 FM052200 14008KT P6SM SCT080 TEMPO 0522/0601 P6SM -SHRA BKN080 BECMG 0522/0524 08008KT FM060100 17010KT P6SM SCT070 TEMPO 0601/0605 P6SM -SHRA BKN070 PROB30 0601/0605 VRB15G25KT 3SM TSRA BR BKN060CB FM060500 VRB03KT P6SM SCT070 SCT200 BECMG 0610/0612 BKN150 RMK NXT FCST BY 051800Z

超过4000个机场的气象观测和天气预报(METAR&TAF报告)。

可查询的气象台以黄色和红色小点在地图上表示。

将鼠标移到小点上方,可查看气象台名称。

然后点击查看天气观测和预报。

如需切换地图:点击带黑十字的绿色按钮放大地图;点击带横线的绿色按钮缩小地图;或者点击绿色箭头查看邻近地区的地图。


METAR-TAF: